< < Back
Terminal Aerodrome Forecast


Current Version              Previous Versions:   1  2  3  4  5  6  7  8  9  

Terminal Aerodrome Forecast

795
FTUS42 KJAX 092349
TAFJAX
TAF
KJAX 092349Z 1000/1024 27010G15KT P6SM FEW045
     FM101400 28015G25KT P6SM SKC=

Latest METAR

385
SAUS80 KWBC 100600
MTRJAX
METAR KJAX 100556Z 27004KT 10SM CLR 02/M04 A3008 RMK AO2 SLP185
T00221039 10100 20022 51018


USA.gov is the U.S. government's official web portal to all federal, state and local government web resources and services.